createdAt,value
2023-04-25T00:02:12.831Z,9.21
2023-04-25T00:04:40.260Z,9.21
2023-04-25T00:07:07.325Z,9.21
2023-04-25T00:09:34.259Z,9.20
2023-04-25T00:12:02.504Z,9.24
2023-04-25T00:14:29.789Z,9.24
2023-04-25T00:16:56.265Z,9.26
2023-04-25T00:19:22.914Z,9.31
2023-04-25T00:21:49.367Z,9.24
2023-04-25T00:24:16.358Z,9.22
2023-04-25T00:26:42.838Z,9.19
2023-04-25T00:29:09.310Z,9.13
2023-04-25T00:31:35.795Z,9.10
2023-04-25T00:34:02.479Z,9.12
2023-04-25T00:36:29.021Z,9.11
2023-04-25T00:38:58.230Z,9.07
2023-04-25T00:41:27.060Z,9.02
2023-04-25T00:43:55.842Z,9.01
2023-04-25T00:46:22.482Z,9.07
2023-04-25T00:48:49.111Z,9.05
2023-04-25T00:51:20.206Z,9.14
2023-04-25T00:53:48.783Z,9.03
2023-04-25T00:56:16.216Z,8.99
2023-04-25T00:58:43.936Z,8.97
2023-04-25T01:01:11.741Z,8.95
2023-04-25T01:03:43.061Z,8.94
2023-04-25T01:06:11.115Z,8.89
2023-04-25T01:08:39.921Z,8.89
2023-04-25T01:11:07.337Z,8.86
2023-04-25T01:13:34.744Z,8.86
2023-04-25T01:16:01.594Z,8.84
2023-04-25T01:18:28.133Z,8.86
2023-04-25T01:20:55.716Z,8.95
2023-04-25T01:23:22.657Z,9.00
2023-04-25T01:25:50.414Z,8.94
2023-04-25T01:28:17.908Z,8.99
2023-04-25T01:30:44.565Z,8.99
2023-04-25T01:33:12.170Z,8.93
2023-04-25T01:35:38.615Z,8.93
2023-04-25T01:38:05.246Z,8.86
2023-04-25T01:40:33.927Z,8.82
2023-04-25T01:43:00.703Z,8.75
2023-04-25T01:45:27.228Z,8.67
2023-04-25T01:47:53.721Z,8.63
2023-04-25T01:50:21.280Z,8.58
2023-04-25T01:52:48.118Z,8.59
2023-04-25T01:55:14.604Z,8.61
2023-04-25T01:57:41.106Z,8.61
2023-04-25T02:00:08.339Z,8.64
2023-04-25T02:02:35.026Z,8.64
2023-04-25T02:05:01.882Z,8.66
2023-04-25T02:07:28.402Z,8.70
2023-04-25T02:09:54.902Z,8.73
2023-04-25T02:12:21.389Z,8.73
2023-04-25T02:14:47.919Z,8.72
2023-04-25T02:17:14.677Z,8.72
2023-04-25T02:19:41.227Z,8.73
2023-04-25T02:22:07.885Z,8.73
2023-04-25T02:24:35.820Z,8.72
2023-04-25T02:27:02.521Z,8.73
2023-04-25T02:29:29.013Z,8.73
2023-04-25T02:31:55.667Z,8.74
2023-04-25T02:34:22.449Z,8.76
2023-04-25T02:36:51.772Z,8.80
2023-04-25T02:39:18.526Z,8.85
2023-04-25T02:41:45.448Z,8.87
2023-04-25T02:44:11.919Z,8.88
2023-04-25T02:46:39.744Z,8.88
2023-04-25T02:49:07.344Z,8.87
2023-04-25T02:51:33.921Z,8.84
2023-04-25T02:54:00.390Z,8.79
2023-04-25T02:56:27.350Z,8.79
2023-04-25T02:58:54.855Z,8.81
2023-04-25T03:01:21.594Z,8.71
2023-04-25T03:03:48.292Z,8.60
2023-04-25T03:06:15.810Z,8.57
2023-04-25T03:08:42.393Z,8.62
2023-04-25T03:11:08.863Z,8.63
2023-04-25T03:13:35.399Z,8.68
2023-04-25T03:16:02.158Z,8.69
2023-04-25T03:18:28.820Z,8.69
2023-04-25T03:20:55.486Z,8.66
2023-04-25T03:23:22.225Z,8.63
2023-04-25T03:25:48.712Z,8.58
2023-04-25T03:28:15.606Z,8.55
2023-04-25T03:30:42.077Z,8.54
2023-04-25T03:33:08.601Z,8.45
2023-04-25T03:35:35.107Z,8.42
2023-04-25T03:38:01.589Z,8.35
2023-04-25T03:40:28.110Z,8.41
2023-04-25T03:42:54.657Z,8.33
2023-04-25T03:45:21.290Z,8.35
2023-04-25T03:47:47.793Z,8.33
2023-04-25T03:50:14.306Z,8.33
2023-04-25T03:52:40.831Z,8.28
2023-04-25T03:55:08.104Z,8.29
2023-04-25T03:57:34.617Z,8.25
2023-04-25T04:00:01.264Z,8.21
2023-04-25T04:02:28.297Z,8.19
2023-04-25T04:04:55.112Z,8.19
2023-04-25T04:07:21.942Z,8.16
2023-04-25T04:09:48.456Z,8.13
2023-04-25T04:12:15.067Z,8.16
2023-04-25T04:14:41.716Z,8.14
2023-04-25T04:17:08.337Z,8.22
2023-04-25T04:19:35.053Z,8.19
2023-04-25T04:22:01.553Z,8.21
2023-04-25T04:24:28.035Z,8.15
2023-04-25T04:26:54.527Z,8.08
2023-04-25T04:29:23.904Z,8.08
2023-04-25T04:31:51.799Z,8.02
2023-04-25T04:34:19.458Z,7.99
2023-04-25T04:36:49.659Z,7.98
2023-04-25T04:39:16.191Z,7.98
2023-04-25T04:41:43.968Z,7.98
2023-04-25T04:44:11.401Z,7.99
2023-04-25T04:46:43.108Z,8.02
2023-04-25T04:49:10.817Z,8.02
2023-04-25T04:51:37.847Z,8.07
2023-04-25T04:54:04.704Z,8.13
2023-04-25T04:56:32.232Z,8.06
2023-04-25T04:58:59.134Z,8.09
2023-04-25T05:01:27.214Z,8.09
2023-04-25T05:03:54.478Z,8.05
2023-04-25T05:06:21.653Z,8.01
2023-04-25T05:08:48.336Z,7.98
2023-04-25T05:11:14.943Z,7.99
2023-04-25T05:13:41.429Z,8.06
2023-04-25T05:16:08.012Z,8.09
2023-04-25T05:18:34.633Z,8.19
2023-04-25T05:21:01.166Z,8.24
2023-04-25T05:23:29.007Z,8.28
2023-04-25T05:25:55.717Z,8.30
2023-04-25T05:28:22.462Z,8.28
2023-04-25T05:30:49.472Z,8.33
2023-04-25T05:33:16.657Z,8.27
2023-04-25T05:35:43.246Z,8.31
2023-04-25T05:38:09.836Z,8.30
2023-04-25T05:40:36.468Z,8.28
2023-04-25T05:43:03.429Z,8.31
2023-04-25T05:45:30.031Z,8.31
2023-04-25T05:47:56.781Z,8.32
2023-04-25T05:50:23.429Z,8.47
2023-04-25T05:52:49.904Z,8.63
2023-04-25T05:55:16.805Z,8.67
2023-04-25T05:57:46.242Z,8.78
2023-04-25T06:00:16.045Z,8.84
2023-04-25T06:02:43.470Z,8.97
2023-04-25T06:05:10.163Z,9.12
2023-04-25T06:07:36.945Z,9.33
2023-04-25T06:10:07.289Z,9.56
2023-04-25T06:12:34.610Z,9.64
2023-04-25T06:15:02.114Z,9.83
2023-04-25T06:17:29.178Z,9.83
2023-04-25T06:19:55.826Z,9.96
2023-04-25T06:22:22.524Z,10.13
2023-04-25T06:24:49.142Z,10.32
2023-04-25T06:27:17.116Z,10.34
2023-04-25T06:29:43.745Z,10.37
2023-04-25T06:32:10.535Z,10.45
2023-04-25T06:34:37.141Z,10.56
2023-04-25T06:37:03.629Z,10.73
2023-04-25T06:39:30.405Z,10.86
2023-04-25T06:41:56.919Z,10.88
2023-04-25T06:44:25.129Z,10.91
2023-04-25T06:46:51.710Z,10.90
2023-04-25T06:49:18.383Z,10.95
2023-04-25T06:51:44.954Z,10.96
2023-04-25T06:54:11.429Z,10.82
2023-04-25T06:56:38.011Z,10.82
2023-04-25T06:59:04.545Z,10.67
2023-04-25T07:01:31.590Z,10.73
2023-04-25T07:03:58.349Z,10.75
2023-04-25T07:06:26.959Z,10.67
2023-04-25T07:08:53.641Z,10.68
2023-04-25T07:11:20.603Z,10.75
2023-04-25T07:13:47.139Z,10.60
2023-04-25T07:16:13.667Z,10.57
2023-04-25T07:18:40.157Z,10.48
2023-04-25T07:21:06.829Z,10.42
2023-04-25T07:23:33.332Z,10.47
2023-04-25T07:25:59.790Z,10.45
2023-04-25T07:28:26.354Z,10.45
2023-04-25T07:30:52.837Z,10.36
2023-04-25T07:33:21.427Z,10.36
2023-04-25T07:35:48.314Z,10.40
2023-04-25T07:38:14.900Z,10.32
2023-04-25T07:40:41.421Z,10.43
2023-04-25T07:43:08.006Z,10.58
2023-04-25T07:45:34.563Z,10.61
2023-04-25T07:48:01.272Z,10.81
2023-04-25T07:50:27.908Z,10.89
2023-04-25T07:52:54.484Z,10.99
2023-04-25T07:55:21.092Z,10.98
2023-04-25T07:57:47.585Z,10.93
2023-04-25T08:00:16.030Z,10.78
2023-04-25T08:02:42.662Z,10.85
2023-04-25T08:05:13.165Z,10.80
2023-04-25T08:07:40.013Z,10.76
2023-04-25T08:10:07.861Z,10.76
2023-04-25T08:12:34.690Z,10.68
2023-04-25T08:15:01.358Z,10.73
2023-04-25T08:17:28.484Z,10.68
2023-04-25T08:19:55.044Z,10.61
2023-04-25T08:22:21.524Z,10.57
2023-04-25T08:24:48.003Z,10.73
2023-04-25T08:27:14.566Z,10.85
2023-04-25T08:29:43.111Z,10.78
2023-04-25T08:32:09.549Z,10.86
2023-04-25T08:34:37.832Z,10.97
2023-04-25T08:37:05.485Z,10.90
2023-04-25T08:39:31.986Z,10.98
2023-04-25T08:41:58.635Z,11.11
2023-04-25T08:44:26.109Z,11.18
2023-04-25T08:46:53.518Z,11.33
2023-04-25T08:49:20.251Z,11.34
2023-04-25T08:51:48.406Z,11.42
2023-04-25T08:54:33.530Z,11.58
2023-04-25T08:57:05.399Z,11.67
2023-04-25T08:59:33.443Z,11.90
2023-04-25T09:02:02.225Z,11.69
2023-04-25T09:04:31.968Z,11.72
2023-04-25T09:06:59.562Z,11.48
2023-04-25T09:09:26.037Z,11.50
2023-04-25T09:11:55.645Z,11.52
2023-04-25T09:14:24.117Z,11.47
2023-04-25T09:16:58.600Z,11.16
2023-04-25T09:19:39.754Z,11.09
2023-04-25T09:22:08.453Z,11.02
2023-04-25T09:24:40.402Z,11.08
2023-04-25T09:27:08.138Z,10.90
2023-04-25T09:29:37.263Z,10.62
2023-04-25T09:32:15.288Z,10.48
2023-04-25T09:34:44.406Z,10.26
2023-04-25T09:37:11.999Z,10.20
2023-04-25T09:39:39.984Z,10.10
2023-04-25T09:42:06.750Z,10.06
2023-04-25T09:44:33.357Z,10.06
2023-04-25T09:47:00.271Z,10.10
2023-04-25T09:49:28.691Z,10.34
2023-04-25T09:51:59.367Z,10.42
2023-04-25T09:54:26.946Z,10.49
2023-04-25T09:56:54.454Z,10.44
2023-04-25T09:59:23.811Z,10.51
2023-04-25T10:01:53.856Z,10.51
2023-04-25T10:04:25.647Z,10.66
2023-04-25T10:06:54.574Z,10.73
2023-04-25T10:09:22.487Z,10.71
2023-04-25T10:11:49.248Z,10.65
2023-04-25T10:14:16.740Z,10.41
2023-04-25T10:16:43.760Z,10.64
2023-04-25T10:19:14.395Z,10.55
2023-04-25T10:21:49.344Z,10.41
2023-04-25T10:24:16.456Z,10.47
2023-04-25T10:26:43.480Z,10.30
2023-04-25T10:29:10.699Z,10.27
2023-04-25T10:31:47.081Z,10.26
2023-04-25T10:34:13.662Z,10.45
2023-04-25T10:36:40.855Z,10.67
2023-04-25T10:39:09.801Z,10.94
2023-04-25T10:41:57.826Z,11.53
2023-04-25T10:44:27.792Z,12.40
2023-04-25T10:46:56.816Z,13.14
2023-04-25T10:49:37.414Z,13.92
2023-04-25T10:52:17.402Z,14.36
2023-04-25T10:54:48.464Z,14.11
2023-04-25T10:57:30.445Z,14.12
2023-04-25T11:00:12.190Z,14.15
2023-04-25T11:02:42.819Z,14.14
2023-04-25T11:05:11.187Z,14.25
2023-04-25T11:07:59.983Z,14.17
2023-04-25T11:10:40.926Z,13.92
2023-04-25T11:13:07.399Z,13.84
2023-04-25T11:15:33.976Z,13.78
2023-04-25T11:18:00.866Z,13.82
2023-04-25T11:20:29.834Z,14.06
2023-04-25T11:23:00.057Z,14.11
2023-04-25T11:25:26.878Z,14.28
2023-04-25T11:27:54.789Z,14.39
2023-04-25T11:30:22.717Z,14.30
2023-04-25T11:32:49.455Z,14.58
2023-04-25T11:35:16.569Z,14.76
2023-04-25T11:37:44.866Z,14.76
2023-04-25T11:40:12.697Z,14.54
2023-04-25T11:42:47.010Z,14.59
2023-04-25T11:45:14.687Z,14.27
2023-04-25T11:47:41.334Z,14.73
2023-04-25T11:50:09.645Z,15.29
2023-04-25T11:52:43.474Z,15.35
2023-04-25T11:55:13.685Z,15.23
2023-04-25T11:57:41.699Z,15.02
2023-04-25T12:00:12.509Z,14.99
2023-04-25T12:02:47.490Z,14.78
2023-04-25T12:07:48.403Z,14.01
2023-04-25T12:10:17.652Z,13.75
2023-04-25T12:12:46.217Z,14.51
2023-04-25T12:15:16.730Z,15.52
2023-04-25T12:17:46.531Z,15.50
2023-04-25T12:20:15.686Z,15.72
2023-04-25T12:22:51.787Z,15.89
2023-04-25T12:25:42.025Z,16.25
2023-04-25T12:28:14.426Z,15.97
2023-04-25T12:31:00.236Z,15.93
2023-04-25T12:33:28.454Z,16.11
2023-04-25T12:35:55.602Z,16.37
2023-04-25T12:38:23.815Z,16.24
2023-04-25T12:40:50.318Z,16.10
2023-04-25T12:43:16.826Z,15.58
2023-04-25T12:45:43.287Z,15.58
2023-04-25T12:48:09.825Z,16.25
2023-04-25T12:50:36.330Z,17.59
2023-04-25T12:53:02.842Z,18.60
2023-04-25T12:55:29.307Z,18.31
2023-04-25T12:57:55.776Z,18.11
2023-04-25T13:00:22.210Z,18.49
2023-04-25T13:02:48.788Z,19.63
2023-04-25T13:05:15.441Z,19.87
2023-04-25T13:07:42.215Z,19.66
2023-04-25T13:10:09.178Z,20.20
2023-04-25T13:12:35.874Z,21.71
2023-04-25T13:15:02.327Z,21.49
2023-04-25T13:17:29.013Z,21.27
2023-04-25T13:19:55.700Z,20.11
2023-04-25T13:22:22.265Z,20.80
2023-04-25T13:24:48.853Z,23.16
2023-04-25T13:27:15.333Z,24.84
2023-04-25T13:29:41.875Z,25.00
2023-04-25T13:32:10.417Z,24.62
2023-04-25T13:34:36.944Z,24.34
2023-04-25T13:37:03.464Z,25.78
2023-04-25T13:39:29.938Z,25.85
2023-04-25T13:41:57.127Z,25.60
2023-04-25T13:44:23.659Z,24.97
2023-04-25T13:46:50.277Z,23.11
2023-04-25T13:49:16.965Z,22.33
2023-04-25T13:51:43.800Z,21.44
2023-04-25T13:54:10.693Z,20.41
2023-04-25T13:56:37.401Z,19.40
2023-04-25T13:59:04.047Z,18.50
2023-04-25T14:01:32.251Z,17.96
2023-04-25T14:03:58.900Z,18.61
2023-04-25T14:06:26.359Z,19.45
2023-04-25T14:08:52.956Z,19.66
2023-04-25T14:11:19.584Z,19.25
2023-04-25T14:13:46.750Z,18.09
2023-04-25T14:16:13.163Z,17.85
2023-04-25T14:18:39.701Z,18.17
2023-04-25T14:21:06.198Z,19.00
2023-04-25T14:23:32.639Z,19.03
2023-04-25T14:25:59.162Z,20.06
2023-04-25T14:28:25.637Z,19.84
2023-04-25T14:30:52.494Z,19.28
2023-04-25T14:33:19.045Z,18.70
2023-04-25T14:35:45.569Z,19.06
2023-04-25T14:38:12.120Z,19.78
2023-04-25T14:40:39.180Z,20.52
2023-04-25T14:43:05.936Z,21.35
2023-04-25T14:45:32.503Z,22.12
2023-04-25T14:47:59.087Z,22.45
2023-04-25T14:50:25.607Z,22.85
2023-04-25T14:52:53.784Z,22.67
2023-04-25T14:55:20.401Z,22.28
2023-04-25T14:57:46.949Z,21.22
2023-04-25T15:00:17.229Z,20.34
2023-04-25T15:02:44.000Z,19.55
2023-04-25T15:05:11.251Z,18.42
2023-04-25T15:07:37.859Z,17.16
2023-04-25T15:10:04.702Z,17.38
2023-04-25T15:12:31.277Z,17.12
2023-04-25T15:14:57.850Z,17.00
2023-04-25T15:17:24.525Z,16.77
2023-04-25T15:19:51.117Z,17.15
2023-04-25T15:22:17.697Z,17.04
2023-04-25T15:24:44.186Z,17.55
2023-04-25T15:27:11.851Z,17.37
2023-04-25T15:29:43.366Z,17.29
2023-04-25T15:32:10.761Z,17.08
2023-04-25T15:34:38.469Z,16.59
2023-04-25T15:37:04.936Z,16.29
2023-04-25T15:39:32.156Z,15.81
2023-04-25T15:41:59.261Z,15.75
2023-04-25T15:44:25.779Z,15.48
2023-04-25T15:46:54.953Z,15.01
2023-04-25T15:49:21.926Z,14.98
2023-04-25T15:51:49.107Z,14.80
2023-04-25T15:54:15.975Z,14.52
2023-04-25T15:56:42.490Z,14.43
2023-04-25T15:59:08.952Z,14.53
2023-04-25T16:01:35.629Z,14.45
2023-04-25T16:04:02.828Z,14.37
2023-04-25T16:06:30.337Z,14.19
2023-04-25T16:08:57.553Z,14.07
2023-04-25T16:11:23.993Z,13.93
2023-04-25T16:13:50.824Z,13.80
2023-04-25T16:16:17.610Z,13.70
2023-04-25T16:18:44.258Z,13.72
2023-04-25T16:21:11.859Z,13.36
2023-04-25T16:23:38.348Z,13.13
2023-04-25T16:26:04.929Z,13.07
2023-04-25T16:28:31.447Z,12.93
2023-04-25T16:30:58.087Z,12.73
2023-04-25T16:33:24.573Z,12.59
2023-04-25T16:35:52.697Z,12.48
2023-04-25T16:38:19.489Z,12.22
2023-04-25T16:40:45.979Z,12.03
2023-04-25T16:43:12.486Z,11.90
2023-04-25T16:45:38.903Z,11.83
2023-04-25T16:48:05.560Z,11.71
2023-04-25T16:50:32.250Z,11.61
2023-04-25T16:52:58.707Z,11.55
2023-04-25T16:55:25.190Z,11.51
2023-04-25T16:57:51.774Z,11.53
2023-04-25T17:00:18.657Z,11.54
2023-04-25T17:02:45.391Z,11.63
2023-04-25T17:05:12.074Z,11.58
2023-04-25T17:07:38.582Z,11.49
2023-04-25T17:10:05.444Z,11.37
2023-04-25T17:12:32.094Z,11.32
2023-04-25T17:15:00.374Z,11.33
2023-04-25T17:17:27.760Z,11.27
2023-04-25T17:19:54.309Z,11.17
2023-04-25T17:22:21.790Z,11.09
2023-04-25T17:24:48.223Z,11.04
2023-04-25T17:27:14.858Z,10.91
2023-04-25T17:29:41.457Z,10.82
2023-04-25T17:32:08.209Z,10.75
2023-04-25T17:34:37.577Z,10.68
2023-04-25T17:37:04.087Z,10.63
2023-04-25T17:39:30.577Z,10.59
2023-04-25T17:44:24.609Z,10.45
2023-04-25T17:46:51.277Z,10.33
2023-04-25T17:49:17.881Z,10.30
2023-04-25T17:51:44.458Z,10.23
2023-04-25T17:54:11.086Z,10.12
2023-04-25T17:56:38.263Z,10.06
2023-04-25T17:59:04.858Z,10.03
2023-04-25T18:01:31.475Z,10.02
2023-04-25T18:03:58.116Z,9.93
2023-04-25T18:06:24.864Z,9.82
2023-04-25T18:08:52.851Z,9.74
2023-04-25T18:11:19.788Z,9.62
2023-04-25T18:13:46.352Z,9.53
2023-04-25T18:16:12.905Z,9.47
2023-04-25T18:18:43.132Z,9.40
2023-04-25T18:21:10.399Z,9.35
2023-04-25T18:23:38.086Z,9.33
2023-04-25T18:26:05.556Z,9.37
2023-04-25T18:28:34.198Z,9.35
2023-04-25T18:31:00.908Z,9.25
2023-04-25T18:33:27.467Z,9.23
2023-04-25T18:35:59.350Z,9.17
2023-04-25T18:41:06.213Z,9.10
2023-04-25T18:43:44.498Z,9.07
2023-04-25T18:46:11.238Z,9.06
2023-04-25T18:48:38.031Z,8.97
2023-04-25T18:51:05.613Z,8.96
2023-04-25T18:53:32.504Z,8.92
2023-04-25T18:55:59.060Z,8.93
2023-04-25T18:58:26.098Z,8.89
2023-04-25T19:00:52.761Z,8.86
2023-04-25T19:03:19.494Z,8.90
2023-04-25T19:05:46.140Z,8.97
2023-04-25T19:08:12.660Z,8.98
2023-04-25T19:10:39.179Z,9.02
2023-04-25T19:13:06.545Z,8.95
2023-04-25T19:15:33.677Z,8.94
2023-04-25T19:18:00.336Z,8.90
2023-04-25T19:20:27.577Z,8.86
2023-04-25T19:22:54.704Z,8.78
2023-04-25T19:25:21.230Z,8.73
2023-04-25T19:27:47.710Z,8.71
2023-04-25T19:30:14.654Z,8.61
2023-04-25T19:32:41.295Z,8.55
2023-04-25T19:35:11.420Z,8.60
2023-04-25T19:37:46.453Z,8.53
2023-04-25T19:40:17.902Z,8.55
2023-04-25T19:42:44.917Z,8.52
2023-04-25T19:45:12.520Z,8.39
2023-04-25T19:47:39.400Z,8.36
2023-04-25T19:50:08.562Z,8.25
2023-04-25T19:52:36.053Z,8.11
2023-04-25T19:55:04.986Z,8.08
2023-04-25T19:57:35.308Z,8.09
2023-04-25T20:00:05.002Z,8.05
2023-04-25T20:02:31.886Z,8.03
2023-04-25T20:04:58.625Z,8.02
2023-04-25T20:07:25.517Z,8.06
2023-04-25T20:09:52.023Z,8.09
2023-04-25T20:12:18.656Z,8.11
2023-04-25T20:14:45.129Z,8.11
2023-04-25T20:17:12.134Z,8.06
2023-04-25T20:19:39.377Z,8.07
2023-04-25T20:22:06.419Z,8.01
2023-04-25T20:24:32.912Z,7.95
2023-04-25T20:26:59.580Z,7.92
2023-04-25T20:29:26.534Z,7.88
2023-04-25T20:31:54.041Z,7.83
2023-04-25T20:34:22.047Z,7.78
2023-04-25T20:36:48.919Z,7.76
2023-04-25T20:39:15.535Z,7.81
2023-04-25T20:41:42.339Z,7.83
2023-04-25T20:44:09.435Z,7.78
2023-04-25T20:46:36.446Z,7.75
2023-04-25T20:49:05.107Z,7.69
2023-04-25T20:51:32.645Z,7.61
2023-04-25T20:53:59.124Z,7.52
2023-04-25T20:56:26.597Z,7.47
2023-04-25T20:58:54.269Z,7.41
2023-04-25T21:01:21.107Z,7.39
2023-04-25T21:03:49.464Z,7.38
2023-04-25T21:06:16.896Z,7.38
2023-04-25T21:08:43.568Z,7.37
2023-04-25T21:11:12.075Z,7.39
2023-04-25T21:13:38.788Z,7.42
2023-04-25T21:16:06.834Z,7.49
2023-04-25T21:18:34.826Z,7.54
2023-04-25T21:21:04.304Z,7.59
2023-04-25T21:23:31.887Z,7.66
2023-04-25T21:25:58.387Z,7.73
2023-04-25T21:28:34.072Z,7.75
2023-04-25T21:31:00.817Z,7.75
2023-04-25T21:33:27.354Z,7.75
2023-04-25T21:35:53.837Z,7.76
2023-04-25T21:38:20.403Z,7.71
2023-04-25T21:40:46.941Z,7.70
2023-04-25T21:43:13.489Z,7.66
2023-04-25T21:45:53.790Z,7.65
2023-04-25T21:48:23.790Z,7.63
2023-04-25T21:50:50.331Z,7.63
2023-04-25T21:53:16.790Z,7.59
2023-04-25T21:55:43.241Z,7.64
2023-04-25T21:58:09.733Z,7.69
2023-04-25T22:00:36.289Z,7.70
2023-04-25T22:03:03.007Z,7.71
2023-04-25T22:05:29.550Z,7.74
2023-04-25T22:07:59.262Z,7.76
2023-04-25T22:10:25.913Z,7.77
2023-04-25T22:12:53.100Z,7.78
2023-04-25T22:15:22.412Z,7.76
2023-04-25T22:17:51.061Z,7.70
2023-04-25T22:20:24.095Z,7.65
2023-04-25T22:22:50.632Z,7.59
2023-04-25T22:25:17.262Z,7.53
2023-04-25T22:27:43.855Z,7.50
2023-04-25T22:30:15.035Z,7.46
2023-04-25T22:32:42.201Z,7.50
2023-04-25T22:35:10.491Z,7.57
2023-04-25T22:37:37.176Z,7.52
2023-04-25T22:40:07.787Z,7.56
2023-04-25T22:42:42.408Z,7.58
2023-04-25T22:45:10.314Z,7.55
2023-04-25T22:47:38.011Z,7.51
2023-04-25T22:50:12.398Z,7.46
2023-04-25T22:52:39.354Z,7.42
2023-04-25T22:55:06.807Z,7.33
2023-04-25T22:57:33.657Z,7.29
2023-04-25T23:00:00.255Z,7.31
2023-04-25T23:02:27.565Z,7.30
2023-04-25T23:04:55.032Z,7.27
2023-04-25T23:07:21.692Z,7.29
2023-04-25T23:09:48.181Z,7.25
2023-04-25T23:12:19.259Z,7.18
2023-04-25T23:14:50.268Z,7.13
2023-04-25T23:17:16.718Z,7.05
2023-04-25T23:19:43.191Z,6.99
2023-04-25T23:22:10.105Z,6.92
2023-04-25T23:24:39.030Z,6.86
2023-04-25T23:27:05.569Z,6.78
2023-04-25T23:29:34.063Z,6.76
2023-04-25T23:32:01.703Z,6.71
2023-04-25T23:34:31.794Z,6.65
2023-04-25T23:37:00.926Z,6.56
2023-04-25T23:39:31.036Z,6.50
2023-04-25T23:41:57.868Z,6.45
2023-04-25T23:44:24.395Z,6.42
2023-04-25T23:46:51.348Z,6.35
2023-04-25T23:49:17.817Z,6.26
2023-04-25T23:51:44.353Z,6.16
2023-04-25T23:54:11.182Z,6.09
2023-04-25T23:56:37.950Z,6.04
2023-04-25T23:59:04.899Z,5.98
